82cook.com을 즐겨찾기에 추가
login form

자유게시판

드러낼 수 없는 고민을 풀어보는 속풀이방

Banner

북한 핵 미사일 공격시.. 미국 MD로 막아낼수 없어

걱정하는과학자 조회수 : 528
작성일 : 2016-07-22 22:18:36
http://www.vop.co.kr/A00001049757.html

MD로 미 본토 방어도 불가
 

미국 본토 방어의 핵심인 지상 배치 미사일 방어체계(GMD, Ground-Based Midcourse Defense)로는 북한 핵미사일 공격을 막아낼 수 없다면서 GMD 포대 확장 설치를 중단하라고 촉구했다.

로스앤젤레스타임스(LAT) 등 미 언론에 따르면 미국의 비영리 단체 ‘걱정하는 과학자 모임’(UCS)은 현재의 GMD로 미 주요 도시들에 대한 북한 핵미사일 공격을 방어할 수 없어 버락 오바마 행정부가 포대 확대배치 계획을 그만둬야 한다는 내용의 보고서를 15일에 발표했다.

요격 미사일 분야의 전문가인 세 명의 물리학자가 참여한 60쪽 분량의 이 보고서는 GMD가 기술적으로 여러 문제를 드러냈으며, 이 문제가 해결되기 전에 배치를 확대하려는 계획을 중지해야 한다고 주장했다.

한편 지난 1969년 매사추세츠공대(MIT) 소속 교수들과 학생들을 주축으로 결성된 CSU는 미국이 개발한 과학과 기술이 군사적으로 잘못 사용되는 것을 감시하는 활동을 하고 있다.

IP : 1.243.xxx.166
0 개의 댓글이 있습니다.
    ☞ 로그인 후 의견을 남기실 수 있습니다
    댓글입력 작성자 :

    N

    번호 제목 작성자 날짜 조회
    579492 은행 공인인증서발급을 해외에서도 가능한지요? 급한왕초보 2016/07/25 1,372
    579491 식이조절만으로 2달만에 7kg 감량했어요.. 22 bb 2016/07/25 16,619
    579490 면생리대 궁금한게 있는데 5 2016/07/25 1,478
    579489 10년동안 담배냄새 이웃... 7 음.. 2016/07/25 2,966
    579488 자기보다 못한줄 알았는데 잘살면 시샘하나요? 9 .. 2016/07/25 4,972
    579487 이번주말 부산여행 취소하고 싶은데 위약금 있네요. 10 파르빈 2016/07/25 3,029
    579486 베르나르도 베르톨로치 감독의 마지막 사랑을 오늘 봤어요. 폴 보울즈 .. 2016/07/25 893
    579485 윗집여자 도마질소리진 62 윗집여자 2016/07/25 13,031
    579484 이천미란다 어때요? 9 휴가계획중~.. 2016/07/25 2,141
    579483 에어컨 실외기가 안돌아가는이유? 6 모모 2016/07/25 15,993
    579482 이런ㄱ것도 먹튀녀인가요? 5 .... 2016/07/25 1,779
    579481 굿와이프 질문요~ 2 딸기 2016/07/25 1,943
    579480 그남자가 다른여자와 데이트하고 있는걸 봤어요 55 서러움 2016/07/25 17,681
    579479 지웠습니다 61 바보보봅 2016/07/25 16,833
    579478 부산으로 휴가 가는거 취소할까요? 4 혹시 2016/07/25 2,751
    579477 저는 여드름 경험이 없어요 1 가위도 2016/07/25 1,448
    579476 아이 있는집 매일 에어컨 트시나요? 12 폭염 2016/07/25 3,182
    579475 래쉬가드 추천이요!!! 3 best 2016/07/25 2,752
    579474 뜨거운 여름 아기나 아이들 차안에 두지 마세요. 애완동물 마찬.. 5 차안 열사병.. 2016/07/25 2,105
    579473 중국이 도하훈련이란걸했다는데 위험한걸까요 7 ㅇㅇ 2016/07/25 1,438
    579472 굿 와이프 이번주 임신한 변호사... 21 .. 2016/07/25 7,449
    579471 요가튜터링 동영상 추천 부탁해요. 555 2016/07/25 674
    579470 주택 이사왔는데 택배 받아줄 곳 없으면 돌려보내야하나요? 3 // 2016/07/25 1,715
    579469 일본에서 지진을 2번 경험했어요 11 지진 2016/07/24 5,232
    579468 40살 미혼여자분 무슨낙으로 사세요? 44 복있는여자 2016/07/24 39,637